sensor_id;sensor_type;location;lat;lon;timestamp;P1;durP1;ratioP1;P2;durP2;ratioP2
23394;SDS011;11870;53.084;18.206;2023-03-26T00:00:46;9.50;;;4.65;;
23394;SDS011;11870;53.084;18.206;2023-03-26T00:03:33;10.18;;;4.75;;
23394;SDS011;11870;53.084;18.206;2023-03-26T00:06:07;7.70;;;4.35;;
23394;SDS011;11870;53.084;18.206;2023-03-26T00:08:34;11.38;;;4.63;;
23394;SDS011;11870;53.084;18.206;2023-03-26T00:11:02;9.15;;;4.05;;
23394;SDS011;11870;53.084;18.206;2023-03-26T00:13:28;9.45;;;5.03;;
23394;SDS011;11870;53.084;18.206;2023-03-26T00:15:55;7.65;;;4.07;;
23394;SDS011;11870;53.084;18.206;2023-03-26T00:18:21;10.82;;;4.70;;
23394;SDS011;11870;53.084;18.206;2023-03-26T00:20:55;10.55;;;5.07;;
23394;SDS011;11870;53.084;18.206;2023-03-26T00:23:22;11.68;;;5.15;;
23394;SDS011;11870;53.084;18.206;2023-03-26T00:25:49;10.80;;;4.95;;
23394;SDS011;11870;53.084;18.206;2023-03-26T00:28:16;7.38;;;4.60;;
23394;SDS011;11870;53.084;18.206;2023-03-26T00:30:46;9.18;;;4.60;;
23394;SDS011;11870;53.084;18.206;2023-03-26T00:33:13;7.28;;;3.78;;
23394;SDS011;11870;53.084;18.206;2023-03-26T00:35:42;10.05;;;4.75;;
23394;SDS011;11870;53.084;18.206;2023-03-26T00:38:14;9.02;;;5.07;;
23394;SDS011;11870;53.084;18.206;2023-03-26T00:40:42;10.63;;;5.30;;
23394;SDS011;11870;53.084;18.206;2023-03-26T00:43:09;11.13;;;4.53;;
23394;SDS011;11870;53.084;18.206;2023-03-26T00:45:47;11.02;;;4.88;;
23394;SDS011;11870;53.084;18.206;2023-03-26T00:48:14;10.68;;;4.70;;
23394;SDS011;11870;53.084;18.206;2023-03-26T00:50:41;9.02;;;4.53;;
23394;SDS011;11870;53.084;18.206;2023-03-26T00:53:08;7.25;;;4.30;;
23394;SDS011;11870;53.084;18.206;2023-03-26T00:55:42;8.63;;;4.60;;
23394;SDS011;11870;53.084;18.206;2023-03-26T00:58:09;8.13;;;4.35;;
23394;SDS011;11870;53.084;18.206;2023-03-26T01:00:38;11.77;;;4.68;;
23394;SDS011;11870;53.084;18.206;2023-03-26T01:03:04;7.18;;;4.20;;
23394;SDS011;11870;53.084;18.206;2023-03-26T01:05:39;8.25;;;4.35;;
23394;SDS011;11870;53.084;18.206;2023-03-26T01:08:15;7.32;;;4.25;;
23394;SDS011;11870;53.084;18.206;2023-03-26T01:10:43;7.22;;;4.30;;
23394;SDS011;11870;53.084;18.206;2023-03-26T01:13:19;7.35;;;3.65;;
23394;SDS011;11870;53.084;18.206;2023-03-26T01:15:46;7.22;;;3.92;;
23394;SDS011;11870;53.084;18.206;2023-03-26T01:18:17;7.72;;;4.03;;
23394;SDS011;11870;53.084;18.206;2023-03-26T01:20:54;5.47;;;3.08;;
23394;SDS011;11870;53.084;18.206;2023-03-26T01:23:25;6.07;;;3.88;;
23394;SDS011;11870;53.084;18.206;2023-03-26T01:25:56;7.25;;;4.20;;
23394;SDS011;11870;53.084;18.206;2023-03-26T01:28:26;7.47;;;4.20;;
23394;SDS011;11870;53.084;18.206;2023-03-26T01:30:57;7.60;;;4.03;;
23394;SDS011;11870;53.084;18.206;2023-03-26T01:33:32;7.18;;;4.13;;
23394;SDS011;11870;53.084;18.206;2023-03-26T01:36:12;7.40;;;4.03;;
23394;SDS011;11870;53.084;18.206;2023-03-26T01:41:48;7.60;;;3.85;;
23394;SDS011;11870;53.084;18.206;2023-03-26T01:44:09;6.95;;;4.13;;
23394;SDS011;11870;53.084;18.206;2023-03-26T01:46:45;7.20;;;3.78;;
23394;SDS011;11870;53.084;18.206;2023-03-26T01:49:12;12.02;;;4.57;;
23394;SDS011;11870;53.084;18.206;2023-03-26T01:51:40;7.65;;;4.13;;
23394;SDS011;11870;53.084;18.206;2023-03-26T01:54:08;6.15;;;3.88;;
23394;SDS011;11870;53.084;18.206;2023-03-26T02:04:05;7.70;;;3.88;;
23394;SDS011;11870;53.084;18.206;2023-03-26T02:06:41;6.65;;;3.72;;
23394;SDS011;11870;53.084;18.206;2023-03-26T02:09:10;7.15;;;4.28;;
23394;SDS011;11870;53.084;18.206;2023-03-26T02:11:40;7.05;;;3.45;;
23394;SDS011;11870;53.084;18.206;2023-03-26T02:14:07;5.07;;;3.22;;
23394;SDS011;11870;53.084;18.206;2023-03-26T02:16:34;6.68;;;3.38;;
23394;SDS011;11870;53.084;18.206;2023-03-26T02:19:01;8.55;;;3.05;;
23394;SDS011;11870;53.084;18.206;2023-03-26T02:21:28;6.22;;;2.85;;
23394;SDS011;11870;53.084;18.206;2023-03-26T02:23:58;4.88;;;2.55;;
23394;SDS011;11870;53.084;18.206;2023-03-26T02:26:32;3.50;;;2.30;;
23394;SDS011;11870;53.084;18.206;2023-03-26T02:28:59;5.20;;;2.15;;
23394;SDS011;11870;53.084;18.206;2023-03-26T02:31:26;7.45;;;2.00;;
23394;SDS011;11870;53.084;18.206;2023-03-26T02:33:53;2.53;;;1.60;;
23394;SDS011;11870;53.084;18.206;2023-03-26T02:36:20;2.92;;;1.70;;
23394;SDS011;11870;53.084;18.206;2023-03-26T02:38:51;4.57;;;1.60;;
23394;SDS011;11870;53.084;18.206;2023-03-26T02:41:18;2.35;;;1.50;;
23394;SDS011;11870;53.084;18.206;2023-03-26T02:43:44;3.60;;;1.30;;
23394;SDS011;11870;53.084;18.206;2023-03-26T02:46:11;2.83;;;1.30;;
23394;SDS011;11870;53.084;18.206;2023-03-26T02:48:37;3.75;;;1.25;;
23394;SDS011;11870;53.084;18.206;2023-03-26T02:51:06;2.70;;;1.40;;
23394;SDS011;11870;53.084;18.206;2023-03-26T02:53:32;4.00;;;1.35;;
23394;SDS011;11870;53.084;18.206;2023-03-26T02:55:59;1.67;;;1.13;;
23394;SDS011;11870;53.084;18.206;2023-03-26T02:58:25;2.28;;;1.20;;
23394;SDS011;11870;53.084;18.206;2023-03-26T03:00:54;2.08;;;1.33;;
23394;SDS011;11870;53.084;18.206;2023-03-26T03:03:21;2.30;;;0.90;;
23394;SDS011;11870;53.084;18.206;2023-03-26T03:05:49;3.25;;;1.35;;
23394;SDS011;11870;53.084;18.206;2023-03-26T03:08:20;2.13;;;1.38;;
23394;SDS011;11870;53.084;18.206;2023-03-26T03:10:56;4.60;;;1.67;;
23394;SDS011;11870;53.084;18.206;2023-03-26T03:13:22;2.55;;;1.40;;
23394;SDS011;11870;53.084;18.206;2023-03-26T03:15:50;3.05;;;1.48;;
23394;SDS011;11870;53.084;18.206;2023-03-26T03:18:16;1.88;;;1.27;;
23394;SDS011;11870;53.084;18.206;2023-03-26T03:20:43;3.58;;;1.77;;
23394;SDS011;11870;53.084;18.206;2023-03-26T03:23:09;2.95;;;1.85;;
23394;SDS011;11870;53.084;18.206;2023-03-26T03:25:36;3.33;;;2.13;;
23394;SDS011;11870;53.084;18.206;2023-03-26T03:28:02;3.92;;;1.73;;
23394;SDS011;11870;53.084;18.206;2023-03-26T03:30:29;3.05;;;1.80;;
23394;SDS011;11870;53.084;18.206;2023-03-26T03:32:56;3.70;;;2.10;;
23394;SDS011;11870;53.084;18.206;2023-03-26T03:35:24;3.75;;;1.55;;
23394;SDS011;11870;53.084;18.206;2023-03-26T03:37:57;4.38;;;1.88;;
23394;SDS011;11870;53.084;18.206;2023-03-26T03:40:24;3.33;;;1.95;;
23394;SDS011;11870;53.084;18.206;2023-03-26T03:42:50;3.25;;;1.95;;
23394;SDS011;11870;53.084;18.206;2023-03-26T03:45:17;4.03;;;2.00;;
23394;SDS011;11870;53.084;18.206;2023-03-26T03:47:43;4.88;;;1.92;;
23394;SDS011;11870;53.084;18.206;2023-03-26T03:50:10;2.85;;;1.67;;
23394;SDS011;11870;53.084;18.206;2023-03-26T03:52:36;4.45;;;1.65;;
23394;SDS011;11870;53.084;18.206;2023-03-26T03:55:03;2.28;;;1.60;;
23394;SDS011;11870;53.084;18.206;2023-03-26T03:57:29;3.25;;;2.00;;
23394;SDS011;11870;53.084;18.206;2023-03-26T03:59:57;3.08;;;1.45;;
23394;SDS011;11870;53.084;18.206;2023-03-26T04:02:24;2.00;;;1.65;;
23394;SDS011;11870;53.084;18.206;2023-03-26T04:04:55;3.75;;;1.77;;
23394;SDS011;11870;53.084;18.206;2023-03-26T04:07:22;2.63;;;1.65;;
23394;SDS011;11870;53.084;18.206;2023-03-26T04:09:49;3.50;;;2.00;;
23394;SDS011;11870;53.084;18.206;2023-03-26T04:12:15;2.85;;;1.73;;
23394;SDS011;11870;53.084;18.206;2023-03-26T04:14:41;2.15;;;1.50;;
23394;SDS011;11870;53.084;18.206;2023-03-26T04:17:08;3.25;;;1.70;;
23394;SDS011;11870;53.084;18.206;2023-03-26T04:19:35;3.38;;;2.10;;
23394;SDS011;11870;53.084;18.206;2023-03-26T04:22:01;3.78;;;2.25;;
23394;SDS011;11870;53.084;18.206;2023-03-26T04:24:28;2.65;;;1.88;;
23394;SDS011;11870;53.084;18.206;2023-03-26T04:26:55;2.97;;;2.05;;
23394;SDS011;11870;53.084;18.206;2023-03-26T04:29:28;3.95;;;2.17;;
23394;SDS011;11870;53.084;18.206;2023-03-26T04:31:56;4.80;;;1.88;;
23394;SDS011;11870;53.084;18.206;2023-03-26T04:34:31;3.55;;;2.22;;
23394;SDS011;11870;53.084;18.206;2023-03-26T04:36:59;4.25;;;2.15;;
23394;SDS011;11870;53.084;18.206;2023-03-26T04:39:26;4.22;;;1.83;;
23394;SDS011;11870;53.084;18.206;2023-03-26T04:41:53;5.05;;;2.08;;
23394;SDS011;11870;53.084;18.206;2023-03-26T04:44:20;4.05;;;2.47;;
23394;SDS011;11870;53.084;18.206;2023-03-26T04:46:47;4.63;;;2.25;;
23394;SDS011;11870;53.084;18.206;2023-03-26T04:49:13;2.63;;;1.90;;
23394;SDS011;11870;53.084;18.206;2023-03-26T04:51:40;3.70;;;2.28;;
23394;SDS011;11870;53.084;18.206;2023-03-26T04:54:09;3.00;;;2.17;;
23394;SDS011;11870;53.084;18.206;2023-03-26T04:59:10;4.35;;;2.38;;
23394;SDS011;11870;53.084;18.206;2023-03-26T05:01:38;3.83;;;2.17;;
23394;SDS011;11870;53.084;18.206;2023-03-26T05:04:06;3.67;;;2.28;;
23394;SDS011;11870;53.084;18.206;2023-03-26T05:06:32;5.18;;;2.60;;
23394;SDS011;11870;53.084;18.206;2023-03-26T05:08:59;5.65;;;2.40;;
23394;SDS011;11870;53.084;18.206;2023-03-26T05:11:26;3.63;;;2.42;;
23394;SDS011;11870;53.084;18.206;2023-03-26T05:13:53;6.15;;;2.60;;
23394;SDS011;11870;53.084;18.206;2023-03-26T05:16:21;5.35;;;2.58;;
23394;SDS011;11870;53.084;18.206;2023-03-26T05:18:48;3.53;;;2.40;;
23394;SDS011;11870;53.084;18.206;2023-03-26T05:21:15;6.25;;;2.78;;
23394;SDS011;11870;53.084;18.206;2023-03-26T05:23:42;2.50;;;2.20;;
23394;SDS011;11870;53.084;18.206;2023-03-26T05:26:08;3.63;;;2.25;;
23394;SDS011;11870;53.084;18.206;2023-03-26T05:28:35;4.38;;;2.42;;
23394;SDS011;11870;53.084;18.206;2023-03-26T05:31:01;6.72;;;2.28;;
23394;SDS011;11870;53.084;18.206;2023-03-26T05:33:28;4.65;;;2.47;;
23394;SDS011;11870;53.084;18.206;2023-03-26T05:36:02;4.40;;;2.25;;
23394;SDS011;11870;53.084;18.206;2023-03-26T05:38:30;3.85;;;2.70;;
23394;SDS011;11870;53.084;18.206;2023-03-26T05:40:57;8.27;;;2.28;;
23394;SDS011;11870;53.084;18.206;2023-03-26T05:43:24;3.00;;;2.10;;
23394;SDS011;11870;53.084;18.206;2023-03-26T05:45:50;3.88;;;2.25;;
23394;SDS011;11870;53.084;18.206;2023-03-26T05:48:17;3.65;;;2.22;;
23394;SDS011;11870;53.084;18.206;2023-03-26T05:50:43;3.20;;;2.30;;
23394;SDS011;11870;53.084;18.206;2023-03-26T05:53:09;3.95;;;2.70;;
23394;SDS011;11870;53.084;18.206;2023-03-26T05:55:35;3.53;;;2.50;;
23394;SDS011;11870;53.084;18.206;2023-03-26T05:58:02;5.70;;;3.25;;
23394;SDS011;11870;53.084;18.206;2023-03-26T06:00:28;4.57;;;3.03;;
23394;SDS011;11870;53.084;18.206;2023-03-26T06:02:55;3.38;;;2.60;;
23394;SDS011;11870;53.084;18.206;2023-03-26T06:05:21;3.75;;;2.58;;
23394;SDS011;11870;53.084;18.206;2023-03-26T06:07:47;4.47;;;2.83;;
23394;SDS011;11870;53.084;18.206;2023-03-26T06:10:14;4.72;;;3.30;;
23394;SDS011;11870;53.084;18.206;2023-03-26T06:12:40;5.40;;;3.20;;
23394;SDS011;11870;53.084;18.206;2023-03-26T06:15:07;4.65;;;3.67;;
23394;SDS011;11870;53.084;18.206;2023-03-26T06:17:33;5.40;;;3.17;;
23394;SDS011;11870;53.084;18.206;2023-03-26T06:19:59;8.38;;;2.80;;
23394;SDS011;11870;53.084;18.206;2023-03-26T06:22:26;5.07;;;2.72;;
23394;SDS011;11870;53.084;18.206;2023-03-26T06:24:52;4.85;;;2.50;;
23394;SDS011;11870;53.084;18.206;2023-03-26T06:27:19;4.88;;;2.30;;
23394;SDS011;11870;53.084;18.206;2023-03-26T06:29:45;3.00;;;2.40;;
23394;SDS011;11870;53.084;18.206;2023-03-26T06:32:12;3.97;;;2.53;;
23394;SDS011;11870;53.084;18.206;2023-03-26T06:34:38;3.53;;;2.15;;
23394;SDS011;11870;53.084;18.206;2023-03-26T06:37:06;3.25;;;2.20;;
23394;SDS011;11870;53.084;18.206;2023-03-26T06:39:32;7.40;;;2.35;;
23394;SDS011;11870;53.084;18.206;2023-03-26T06:41:59;3.40;;;2.13;;
23394;SDS011;11870;53.084;18.206;2023-03-26T06:44:25;5.70;;;2.40;;
23394;SDS011;11870;53.084;18.206;2023-03-26T06:46:51;4.53;;;2.40;;
23394;SDS011;11870;53.084;18.206;2023-03-26T06:49:17;3.33;;;2.40;;
23394;SDS011;11870;53.084;18.206;2023-03-26T06:51:45;3.17;;;2.25;;
23394;SDS011;11870;53.084;18.206;2023-03-26T06:54:12;3.47;;;2.10;;
23394;SDS011;11870;53.084;18.206;2023-03-26T06:56:38;4.07;;;2.10;;
23394;SDS011;11870;53.084;18.206;2023-03-26T06:59:04;4.65;;;2.17;;
23394;SDS011;11870;53.084;18.206;2023-03-26T07:01:31;2.58;;;1.45;;
23394;SDS011;11870;53.084;18.206;2023-03-26T07:03:57;3.80;;;1.80;;
23394;SDS011;11870;53.084;18.206;2023-03-26T07:06:24;2.90;;;1.38;;
23394;SDS011;11870;53.084;18.206;2023-03-26T07:08:50;2.83;;;1.40;;
23394;SDS011;11870;53.084;18.206;2023-03-26T07:11:17;1.40;;;1.30;;
23394;SDS011;11870;53.084;18.206;2023-03-26T07:13:44;2.65;;;1.20;;
23394;SDS011;11870;53.084;18.206;2023-03-26T07:16:12;1.63;;;1.20;;
23394;SDS011;11870;53.084;18.206;2023-03-26T07:18:38;1.25;;;1.08;;
23394;SDS011;11870;53.084;18.206;2023-03-26T07:21:05;1.77;;;1.40;;
23394;SDS011;11870;53.084;18.206;2023-03-26T07:23:31;2.15;;;1.10;;
23394;SDS011;11870;53.084;18.206;2023-03-26T07:25:58;1.90;;;0.95;;
23394;SDS011;11870;53.084;18.206;2023-03-26T07:28:33;1.00;;;0.90;;
23394;SDS011;11870;53.084;18.206;2023-03-26T07:41:50;1.08;;;0.90;;
23394;SDS011;11870;53.084;18.206;2023-03-26T07:44:44;0.98;;;0.70;;
23394;SDS011;11870;53.084;18.206;2023-03-26T07:49:54;0.90;;;0.70;;
23394;SDS011;11870;53.084;18.206;2023-03-26T07:52:22;1.73;;;0.90;;
23394;SDS011;11870;53.084;18.206;2023-03-26T07:54:49;1.25;;;0.93;;
23394;SDS011;11870;53.084;18.206;2023-03-26T07:57:26;0.80;;;0.75;;
23394;SDS011;11870;53.084;18.206;2023-03-26T08:00:21;1.05;;;0.95;;
23394;SDS011;11870;53.084;18.206;2023-03-26T08:03:00;1.17;;;0.95;;
23394;SDS011;11870;53.084;18.206;2023-03-26T08:08:12;1.20;;;0.70;;
23394;SDS011;11870;53.084;18.206;2023-03-26T08:14:03;1.73;;;0.98;;
23394;SDS011;11870;53.084;18.206;2023-03-26T08:17:00;1.75;;;0.75;;
23394;SDS011;11870;53.084;18.206;2023-03-26T08:22:38;0.70;;;0.70;;
23394;SDS011;11870;53.084;18.206;2023-03-26T08:27:40;1.10;;;0.80;;
23394;SDS011;11870;53.084;18.206;2023-03-26T08:30:21;1.25;;;0.70;;
23394;SDS011;11870;53.084;18.206;2023-03-26T08:35:36;1.23;;;0.88;;
23394;SDS011;11870;53.084;18.206;2023-03-26T08:38:09;0.95;;;0.80;;
23394;SDS011;11870;53.084;18.206;2023-03-26T08:43:17;1.02;;;0.80;;
23394;SDS011;11870;53.084;18.206;2023-03-26T08:56:51;0.68;;;0.68;;
23394;SDS011;11870;53.084;18.206;2023-03-26T09:12:42;1.23;;;0.93;;
23394;SDS011;11870;53.084;18.206;2023-03-26T09:15:33;2.15;;;1.10;;
23394;SDS011;11870;53.084;18.206;2023-03-26T09:18:20;3.05;;;1.10;;
23394;SDS011;11870;53.084;18.206;2023-03-26T09:29:07;4.93;;;1.10;;
23394;SDS011;11870;53.084;18.206;2023-03-26T09:36:40;1.85;;;1.08;;
23394;SDS011;11870;53.084;18.206;2023-03-26T09:44:46;1.70;;;1.10;;
23394;SDS011;11870;53.084;18.206;2023-03-26T09:50:08;1.60;;;1.13;;
23394;SDS011;11870;53.084;18.206;2023-03-26T10:12:24;3.75;;;0.90;;
23394;SDS011;11870;53.084;18.206;2023-03-26T10:18:06;1.55;;;0.95;;
23394;SDS011;11870;53.084;18.206;2023-03-26T10:23:47;1.15;;;0.90;;
23394;SDS011;11870;53.084;18.206;2023-03-26T10:29:12;1.48;;;0.93;;
23394;SDS011;11870;53.084;18.206;2023-03-26T10:32:08;1.33;;;1.00;;
23394;SDS011;11870;53.084;18.206;2023-03-26T10:39:59;2.25;;;1.00;;
23394;SDS011;11870;53.084;18.206;2023-03-26T10:48:25;1.10;;;0.77;;
23394;SDS011;11870;53.084;18.206;2023-03-26T10:54:11;1.02;;;0.77;;
23394;SDS011;11870;53.084;18.206;2023-03-26T10:56:55;1.45;;;1.20;;
23394;SDS011;11870;53.084;18.206;2023-03-26T10:59:23;1.42;;;1.13;;
23394;SDS011;11870;53.084;18.206;2023-03-26T11:01:59;2.22;;;1.13;;
23394;SDS011;11870;53.084;18.206;2023-03-26T11:15:21;2.80;;;0.68;;
23394;SDS011;11870;53.084;18.206;2023-03-26T11:17:56;1.00;;;0.88;;
23394;SDS011;11870;53.084;18.206;2023-03-26T11:31:46;2.95;;;1.00;;
23394;SDS011;11870;53.084;18.206;2023-03-26T11:34:22;2.80;;;1.10;;
23394;SDS011;11870;53.084;18.206;2023-03-26T11:36:55;2.95;;;1.30;;
23394;SDS011;11870;53.084;18.206;2023-03-26T11:39:25;1.55;;;0.98;;
23394;SDS011;11870;53.084;18.206;2023-03-26T11:41:57;1.35;;;0.93;;
23394;SDS011;11870;53.084;18.206;2023-03-26T11:44:46;1.10;;;0.88;;
23394;SDS011;11870;53.084;18.206;2023-03-26T11:47:20;1.58;;;1.00;;
23394;SDS011;11870;53.084;18.206;2023-03-26T11:49:51;1.83;;;1.13;;
23394;SDS011;11870;53.084;18.206;2023-03-26T11:52:19;1.20;;;1.10;;
23394;SDS011;11870;53.084;18.206;2023-03-26T11:54:46;2.28;;;1.25;;
23394;SDS011;11870;53.084;18.206;2023-03-26T11:57:35;1.88;;;1.27;;
23394;SDS011;11870;53.084;18.206;2023-03-26T12:00:09;2.45;;;1.10;;
23394;SDS011;11870;53.084;18.206;2023-03-26T12:02:44;1.35;;;1.15;;
23394;SDS011;11870;53.084;18.206;2023-03-26T12:07:46;1.63;;;1.15;;
23394;SDS011;11870;53.084;18.206;2023-03-26T12:10:20;3.00;;;1.25;;
23394;SDS011;11870;53.084;18.206;2023-03-26T12:16:00;2.45;;;1.30;;
23394;SDS011;11870;53.084;18.206;2023-03-26T12:18:32;3.03;;;1.50;;
23394;SDS011;11870;53.084;18.206;2023-03-26T12:26:48;6.53;;;1.50;;
23394;SDS011;11870;53.084;18.206;2023-03-26T12:31:40;3.53;;;1.75;;
23394;SDS011;11870;53.084;18.206;2023-03-26T12:34:17;2.65;;;1.35;;
23394;SDS011;11870;53.084;18.206;2023-03-26T12:36:46;4.05;;;1.38;;
23394;SDS011;11870;53.084;18.206;2023-03-26T12:41:58;2.50;;;1.23;;
23394;SDS011;11870;53.084;18.206;2023-03-26T12:44:25;2.08;;;0.95;;
23394;SDS011;11870;53.084;18.206;2023-03-26T12:47:08;2.85;;;1.20;;
23394;SDS011;11870;53.084;18.206;2023-03-26T12:49:45;3.03;;;1.30;;
23394;SDS011;11870;53.084;18.206;2023-03-26T12:54:52;1.90;;;1.30;;
23394;SDS011;11870;53.084;18.206;2023-03-26T12:57:51;5.40;;;1.20;;
23394;SDS011;11870;53.084;18.206;2023-03-26T13:00:46;2.72;;;1.00;;
23394;SDS011;11870;53.084;18.206;2023-03-26T13:03:19;2.78;;;1.45;;
23394;SDS011;11870;53.084;18.206;2023-03-26T13:08:51;2.97;;;1.45;;
23394;SDS011;11870;53.084;18.206;2023-03-26T13:14:18;1.55;;;1.10;;
23394;SDS011;11870;53.084;18.206;2023-03-26T13:19:46;2.30;;;1.15;;
23394;SDS011;11870;53.084;18.206;2023-03-26T13:22:31;1.80;;;1.30;;
23394;SDS011;11870;53.084;18.206;2023-03-26T13:25:16;1.88;;;1.15;;
23394;SDS011;11870;53.084;18.206;2023-03-26T13:27:55;2.15;;;1.20;;
23394;SDS011;11870;53.084;18.206;2023-03-26T13:33:48;1.38;;;0.93;;
23394;SDS011;11870;53.084;18.206;2023-03-26T13:38:53;1.20;;;1.02;;
23394;SDS011;11870;53.084;18.206;2023-03-26T13:46:40;1.42;;;0.82;;
23394;SDS011;11870;53.084;18.206;2023-03-26T13:49:12;1.27;;;0.80;;
23394;SDS011;11870;53.084;18.206;2023-03-26T13:51:55;4.18;;;0.80;;
23394;SDS011;11870;53.084;18.206;2023-03-26T13:54:33;1.10;;;0.90;;
23394;SDS011;11870;53.084;18.206;2023-03-26T13:59:46;0.90;;;0.80;;
23394;SDS011;11870;53.084;18.206;2023-03-26T14:02:21;1.38;;;0.90;;
23394;SDS011;11870;53.084;18.206;2023-03-26T14:04:53;2.05;;;1.05;;
23394;SDS011;11870;53.084;18.206;2023-03-26T14:07:26;3.58;;;1.48;;
23394;SDS011;11870;53.084;18.206;2023-03-26T14:14:59;2.97;;;1.33;;
23394;SDS011;11870;53.084;18.206;2023-03-26T14:17:38;4.45;;;1.90;;
23394;SDS011;11870;53.084;18.206;2023-03-26T14:20:41;2.78;;;1.70;;
23394;SDS011;11870;53.084;18.206;2023-03-26T14:28:50;3.70;;;1.63;;
23394;SDS011;11870;53.084;18.206;2023-03-26T14:37:14;2.45;;;1.20;;
23394;SDS011;11870;53.084;18.206;2023-03-26T14:40:25;4.10;;;1.55;;
23394;SDS011;11870;53.084;18.206;2023-03-26T14:51:06;1.65;;;0.93;;
23394;SDS011;11870;53.084;18.206;2023-03-26T14:54:00;1.42;;;1.15;;
23394;SDS011;11870;53.084;18.206;2023-03-26T14:56:37;2.83;;;1.40;;
23394;SDS011;11870;53.084;18.206;2023-03-26T14:59:17;2.67;;;1.25;;
23394;SDS011;11870;53.084;18.206;2023-03-26T15:21:47;3.00;;;1.00;;
23394;SDS011;11870;53.084;18.206;2023-03-26T15:24:50;1.20;;;0.82;;
23394;SDS011;11870;53.084;18.206;2023-03-26T15:33:30;3.63;;;1.50;;
23394;SDS011;11870;53.084;18.206;2023-03-26T15:36:31;2.85;;;1.40;;
23394;SDS011;11870;53.084;18.206;2023-03-26T15:39:39;4.25;;;1.92;;
23394;SDS011;11870;53.084;18.206;2023-03-26T15:53:04;2.70;;;1.70;;
23394;SDS011;11870;53.084;18.206;2023-03-26T16:01:12;3.30;;;2.00;;
23394;SDS011;11870;53.084;18.206;2023-03-26T16:09:39;10.93;;;5.50;;
23394;SDS011;11870;53.084;18.206;2023-03-26T16:20:44;4.25;;;2.22;;
23394;SDS011;11870;53.084;18.206;2023-03-26T16:28:28;2.30;;;1.60;;
23394;SDS011;11870;53.084;18.206;2023-03-26T16:31:03;2.70;;;1.70;;
23394;SDS011;11870;53.084;18.206;2023-03-26T16:33:49;2.90;;;2.17;;
23394;SDS011;11870;53.084;18.206;2023-03-26T16:36:35;3.75;;;2.30;;
23394;SDS011;11870;53.084;18.206;2023-03-26T16:41:32;10.57;;;5.07;;
23394;SDS011;11870;53.084;18.206;2023-03-26T16:44:09;5.65;;;3.15;;
23394;SDS011;11870;53.084;18.206;2023-03-26T16:49:43;3.65;;;2.50;;
23394;SDS011;11870;53.084;18.206;2023-03-26T16:55:02;10.75;;;5.28;;
23394;SDS011;11870;53.084;18.206;2023-03-26T17:08:19;18.60;;;9.68;;
23394;SDS011;11870;53.084;18.206;2023-03-26T17:13:27;19.15;;;8.88;;
23394;SDS011;11870;53.084;18.206;2023-03-26T17:18:48;37.40;;;15.52;;
23394;SDS011;11870;53.084;18.206;2023-03-26T17:24:06;20.85;;;8.73;;
23394;SDS011;11870;53.084;18.206;2023-03-26T17:29:13;9.95;;;5.28;;
23394;SDS011;11870;53.084;18.206;2023-03-26T17:32:22;7.80;;;4.07;;
23394;SDS011;11870;53.084;18.206;2023-03-26T17:42:10;12.30;;;5.88;;
23394;SDS011;11870;53.084;18.206;2023-03-26T17:47:04;14.07;;;5.00;;
23394;SDS011;11870;53.084;18.206;2023-03-26T17:49:31;18.48;;;7.00;;
23394;SDS011;11870;53.084;18.206;2023-03-26T17:51:59;22.58;;;7.93;;
23394;SDS011;11870;53.084;18.206;2023-03-26T17:54:40;16.63;;;6.35;;
23394;SDS011;11870;53.084;18.206;2023-03-26T18:00:14;17.60;;;5.88;;
23394;SDS011;11870;53.084;18.206;2023-03-26T18:02:46;11.13;;;4.55;;
23394;SDS011;11870;53.084;18.206;2023-03-26T18:05:15;14.95;;;6.32;;
23394;SDS011;11870;53.084;18.206;2023-03-26T18:07:49;21.10;;;7.28;;
23394;SDS011;11870;53.084;18.206;2023-03-26T18:20:57;13.13;;;4.68;;
23394;SDS011;11870;53.084;18.206;2023-03-26T18:23:25;15.48;;;5.20;;
23394;SDS011;11870;53.084;18.206;2023-03-26T18:25:55;10.10;;;4.28;;
23394;SDS011;11870;53.084;18.206;2023-03-26T18:28:29;10.13;;;4.10;;
23394;SDS011;11870;53.084;18.206;2023-03-26T18:30:56;9.00;;;4.30;;
23394;SDS011;11870;53.084;18.206;2023-03-26T18:33:39;9.50;;;4.57;;
23394;SDS011;11870;53.084;18.206;2023-03-26T18:36:07;11.98;;;5.03;;
23394;SDS011;11870;53.084;18.206;2023-03-26T18:38:35;8.93;;;4.53;;
23394;SDS011;11870;53.084;18.206;2023-03-26T18:41:01;10.85;;;4.85;;
23394;SDS011;11870;53.084;18.206;2023-03-26T18:43:30;10.60;;;5.22;;
23394;SDS011;11870;53.084;18.206;2023-03-26T18:46:16;51.95;;;13.73;;
23394;SDS011;11870;53.084;18.206;2023-03-26T18:48:42;13.20;;;5.38;;
23394;SDS011;11870;53.084;18.206;2023-03-26T18:51:09;12.38;;;4.72;;
23394;SDS011;11870;53.084;18.206;2023-03-26T18:53:48;11.10;;;5.47;;
23394;SDS011;11870;53.084;18.206;2023-03-26T18:58:51;16.73;;;7.53;;
23394;SDS011;11870;53.084;18.206;2023-03-26T19:01:22;17.95;;;7.55;;
23394;SDS011;11870;53.084;18.206;2023-03-26T19:03:50;16.13;;;6.30;;
23394;SDS011;11870;53.084;18.206;2023-03-26T19:06:17;10.88;;;4.63;;
23394;SDS011;11870;53.084;18.206;2023-03-26T19:08:45;19.70;;;8.32;;
23394;SDS011;11870;53.084;18.206;2023-03-26T19:11:13;11.80;;;5.78;;
23394;SDS011;11870;53.084;18.206;2023-03-26T19:13:41;13.80;;;5.38;;
23394;SDS011;11870;53.084;18.206;2023-03-26T19:16:19;11.60;;;4.65;;
23394;SDS011;11870;53.084;18.206;2023-03-26T19:18:46;9.95;;;5.18;;
23394;SDS011;11870;53.084;18.206;2023-03-26T19:21:13;11.95;;;4.65;;
23394;SDS011;11870;53.084;18.206;2023-03-26T19:23:42;14.05;;;5.25;;
23394;SDS011;11870;53.084;18.206;2023-03-26T19:26:09;12.23;;;5.00;;
23394;SDS011;11870;53.084;18.206;2023-03-26T19:28:37;11.88;;;5.32;;
23394;SDS011;11870;53.084;18.206;2023-03-26T19:31:09;13.00;;;6.78;;
23394;SDS011;11870;53.084;18.206;2023-03-26T19:33:38;12.40;;;5.68;;
23394;SDS011;11870;53.084;18.206;2023-03-26T19:38:43;14.15;;;6.28;;
23394;SDS011;11870;53.084;18.206;2023-03-26T19:43:50;9.68;;;4.82;;
23394;SDS011;11870;53.084;18.206;2023-03-26T19:46:17;10.05;;;4.40;;
23394;SDS011;11870;53.084;18.206;2023-03-26T19:48:44;9.70;;;4.55;;
23394;SDS011;11870;53.084;18.206;2023-03-26T19:51:22;9.30;;;3.92;;
23394;SDS011;11870;53.084;18.206;2023-03-26T19:53:50;11.23;;;5.00;;
23394;SDS011;11870;53.084;18.206;2023-03-26T19:56:18;10.68;;;4.72;;
23394;SDS011;11870;53.084;18.206;2023-03-26T19:58:45;21.50;;;6.40;;
23394;SDS011;11870;53.084;18.206;2023-03-26T20:01:14;14.10;;;5.25;;
23394;SDS011;11870;53.084;18.206;2023-03-26T20:03:42;11.30;;;5.28;;
23394;SDS011;11870;53.084;18.206;2023-03-26T20:06:10;10.93;;;4.72;;
23394;SDS011;11870;53.084;18.206;2023-03-26T20:08:37;14.95;;;6.07;;
23394;SDS011;11870;53.084;18.206;2023-03-26T20:11:05;13.07;;;5.50;;
23394;SDS011;11870;53.084;18.206;2023-03-26T20:13:37;14.30;;;6.25;;
23394;SDS011;11870;53.084;18.206;2023-03-26T20:16:06;17.90;;;6.18;;
23394;SDS011;11870;53.084;18.206;2023-03-26T20:18:36;11.40;;;5.80;;
23394;SDS011;11870;53.084;18.206;2023-03-26T20:21:09;14.23;;;5.47;;
23394;SDS011;11870;53.084;18.206;2023-03-26T20:23:36;15.30;;;5.75;;
23394;SDS011;11870;53.084;18.206;2023-03-26T20:26:03;11.68;;;4.75;;
23394;SDS011;11870;53.084;18.206;2023-03-26T20:28:30;19.98;;;7.18;;
23394;SDS011;11870;53.084;18.206;2023-03-26T20:30:56;16.30;;;6.55;;
23394;SDS011;11870;53.084;18.206;2023-03-26T20:33:23;22.20;;;8.07;;
23394;SDS011;11870;53.084;18.206;2023-03-26T20:35:54;15.98;;;5.68;;
23394;SDS011;11870;53.084;18.206;2023-03-26T20:38:21;16.85;;;6.35;;